Jp Tsubaki — JD2817 — position and weather

sailwx.info

Track history (hours):
 
Tides and Currents Weather Stations Pressure Air Temp Water Temp Dewpoint Dewpoint Depression Visibility Wind Speed Wind Dir Waves Ship Positions

Jp Tsubaki

Last reported at 2014-Dec-21 02:33 UTC. Time now 2014-Dec-21 03:20 UTC.
Position N 35°30' E 139°43'.

Length 115 m; draft 6.5 m.

Type: Cargo ship. MMSI: 431000734.

Date/timePositionNaut miles runAvg speedWind from/ knotsBaromVisibWave heightAir tempDewpointWater temp
2014-Dec-21 02:33N 35°30' E 139°43'0 0.0
2014-Dec-21 01:30N 35°30' E 139°43'0 0.0
2014-Dec-21 00:33N 35°30' E 139°43'0 0.0
2014-Dec-20 23:33N 35°30' E 139°43'0 0.0
2014-Dec-20 22:33N 35°30' E 139°43'6 5.9
2014-Dec-20 21:34N 35°24' E 139°45'1 0.9
2014-Dec-20 20:31N 35°23' E 139°44'0 0.1
2014-Dec-20 19:28N 35°23' E 139°44'0 0.0
2014-Dec-20 18:31N 35°23' E 139°44'0 0.1
2014-Dec-20 17:28N 35°23' E 139°44'0 0.1
2014-Dec-20 16:31N 35°23' E 139°44'0 0.1
2014-Dec-20 15:31N 35°23' E 139°44'0 0.0
2014-Dec-20 14:31N 35°23' E 139°44'0 0.1
2014-Dec-20 13:33N 35°23' E 139°44'5 4.8
2014-Dec-20 12:33N 35°24' E 139°39'0 0.0
2014-Dec-20 11:33N 35°24' E 139°39'0 0.0
2014-Dec-20 10:33N 35°24' E 139°39'0 0.0
2014-Dec-20 09:33N 35°24' E 139°39'0 0.0
2014-Dec-20 08:33N 35°24' E 139°39'0 0.0
2014-Dec-20 07:24N 35°24' E 139°39'0 0.5
2014-Dec-20 06:33N 35°24' E 139°39'8 8.3
2014-Dec-20 05:33N 35°28' E 139°47'3 3.0
2014-Dec-20 04:33N 35°30' E 139°44'0 0.0
2014-Dec-20 03:27N 35°30' E 139°44'0 0.0
2014-Dec-20 02:33N 35°30' E 139°44'0 0.0
2014-Dec-20 01:33N 35°30' E 139°44'0 0.0
2014-Dec-20 00:33N 35°30' E 139°44'0 0.0
2014-Dec-19 23:33N 35°30' E 139°44'0 0.0
2014-Dec-19 22:33N 35°30' E 139°44'0 0.0
2014-Dec-19 21:33N 35°30' E 139°44'0 0.0
2014-Dec-19 20:33N 35°30' E 139°44'0 0.0
2014-Dec-19 19:33N 35°30' E 139°44'0 0.0
2014-Dec-19 18:33N 35°30' E 139°44'0 0.0
2014-Dec-19 17:33N 35°30' E 139°44'0 0.0
2014-Dec-19 16:33N 35°30' E 139°44'0 0.0
2014-Dec-19 15:33N 35°30' E 139°44'0 0.0
2014-Dec-19 14:33N 35°30' E 139°44'2 2.4
2014-Dec-19 13:33N 35°28' E 139°42'5 5.0
2014-Dec-19 12:33N 35°24' E 139°39'0 0.0
2014-Dec-19 11:33N 35°24' E 139°39'0 0.0
2014-Dec-19 10:33N 35°24' E 139°39'0 0.0
2014-Dec-19 09:33N 35°24' E 139°39'0 0.0
2014-Dec-19 08:30N 35°24' E 139°39'0 0.0
2014-Dec-19 07:33N 35°24' E 139°39'0 0.4
2014-Dec-19 06:33N 35°24' E 139°39'9 9.1
2014-Dec-19 05:33N 35°28' E 139°48'7 6.6
2014-Dec-19 04:32N 35°30' E 139°57'0 0.0
2014-Dec-19 01:24N 35°30' E 139°57'0 0.0
2014-Dec-19 00:24N 35°30' E 139°57'0 0.0
2014-Dec-18 23:21N 35°30' E 139°57'0 0.1
2014-Dec-18 22:33N 35°30' E 139°57'0 0.0
2014-Dec-18 21:21N 35°30' E 139°57'3 3.2
2014-Dec-18 20:33N 35°27' E 139°58'0 0.0
2014-Dec-18 19:33N 35°27' E 139°58'0 0.0
2014-Dec-18 18:14N 35°27' E 139°58'0 0.0
2014-Dec-18 17:32N 35°27' E 139°58'0 0.0
2014-Dec-18 16:20N 35°27' E 139°58'0 0.0
2014-Dec-18 15:26N 35°27' E 139°58'0 0.2
2014-Dec-18 14:33N 35°28' E 139°58'9 8.6
2014-Dec-18 13:33N 35°25' E 139°48'8 7.8
2014-Dec-18 12:33N 35°24' E 139°39'0 0.0
2014-Dec-18 11:33N 35°24' E 139°39'0 0.0
2014-Dec-18 10:33N 35°24' E 139°39'0 0.0
2014-Dec-18 09:18N 35°24' E 139°39'0 0.0
2014-Dec-18 08:27N 35°24' E 139°39'0 0.0
2014-Dec-18 07:30N 35°24' E 139°39'1 1.4
2014-Dec-18 06:34N 35°23' E 139°40'9 8.3
2014-Dec-18 05:30N 35°30' E 139°46'2 2.6
2014-Dec-18 04:33N 35°30' E 139°43'0 0.0
2014-Dec-18 03:32N 35°30' E 139°43'0 0.0
2014-Dec-18 02:32N 35°30' E 139°43'0 0.0
2014-Dec-18 01:32N 35°30' E 139°43'0 0.0
2014-Dec-18 00:32N 35°30' E 139°43'0 0.0
2014-Dec-17 23:32N 35°30' E 139°43'0 0.0
2014-Dec-17 22:33N 35°30' E 139°43'5 5.3
2014-Dec-17 21:33N 35°25' E 139°45'1 0.7
2014-Dec-17 20:29N 35°24' E 139°45'0 0.1
2014-Dec-17 19:31N 35°24' E 139°45'0 0.1
2014-Dec-17 18:32N 35°24' E 139°45'0 0.1
2014-Dec-17 17:31N 35°24' E 139°45'0 0.1
2014-Dec-17 16:34N 35°24' E 139°45'0 0.0
2014-Dec-17 15:33N 35°24' E 139°45'0 0.1
2014-Dec-17 14:32N 35°24' E 139°45'0 0.1
2014-Dec-17 13:31N 35°24' E 139°45'5 5.3
2014-Dec-17 12:33N 35°24' E 139°39'0 0.0
2014-Dec-17 11:33N 35°24' E 139°39'0 0.0
2014-Dec-17 10:24N 35°24' E 139°39'0 0.0
2014-Dec-17 09:03N 35°24' E 139°39'0 0.0
2014-Dec-17 08:21N 35°24' E 139°39'0 0.0
2014-Dec-17 07:33N 35°24' E 139°39'0 0.0
2014-Dec-17 06:33N 35°24' E 139°39'0 0.0
2014-Dec-17 05:33N 35°24' E 139°39'0 0.0
2014-Dec-17 04:18N 35°24' E 139°39'0 0.0
2014-Dec-17 03:15N 35°24' E 139°39'0 0.0
2014-Dec-17 02:09N 35°24' E 139°39'0 0.0
2014-Dec-17 01:27N 35°24' E 139°39'0 0.0
2014-Dec-17 00:27N 35°24' E 139°39'0 0.0
2014-Dec-16 23:24N 35°24' E 139°39'0 0.0
2014-Dec-16 22:33N 35°24' E 139°39'0 0.0
2014-Dec-16 21:33N 35°24' E 139°39'0 0.0
2014-Dec-16 20:30N 35°24' E 139°39'0 0.0
2014-Dec-16 19:27N 35°24' E 139°39'0 0.0
2014-Dec-16 18:33N 35°24' E 139°39'0 0.0
2014-Dec-16 17:33N 35°24' E 139°39'0 0.0
2014-Dec-16 16:33N 35°24' E 139°39'0 0.0
2014-Dec-16 15:33N 35°24' E 139°39'0 0.0
2014-Dec-16 14:30N 35°24' E 139°39'0 0.0
2014-Dec-16 13:33N 35°24' E 139°39'2 2.2
2014-Dec-16 12:34N 35°23' E 139°41'8 7.9
2014-Dec-16 11:33N 35°30' E 139°46'2 2.1
2014-Dec-16 10:32N 35°30' E 139°43'0 0.0
2014-Dec-16 09:29N 35°30' E 139°43'0 0.0
2014-Dec-16 08:32N 35°30' E 139°43'0 0.0
2014-Dec-16 07:32N 35°30' E 139°43'0 0.0
2014-Dec-16 06:32N 35°30' E 139°43'0 0.0
2014-Dec-16 05:29N 35°30' E 139°43'3 2.9
2014-Dec-16 04:33N 35°27' E 139°43'4 3.8
2014-Dec-16 03:33N 35°23' E 139°44'0 0.0
2014-Dec-16 02:32N 35°23' E 139°44'0 0.0
2014-Dec-16 01:08N 35°23' E 139°44'0 0.0
2014-Dec-15 23:31N 35°23' E 139°44'0 0.0
2014-Dec-15 22:31N 35°23' E 139°44'0 0.0
2014-Dec-15 21:31N 35°23' E 139°44'0 0.0
2014-Dec-15 20:31N 35°23' E 139°44'0 0.0
2014-Dec-15 19:31N 35°23' E 139°44'0 0.0
2014-Dec-15 18:31N 35°23' E 139°44'0 0.0
2014-Dec-15 17:31N 35°23' E 139°44'0 0.0
2014-Dec-15 16:31N 35°23' E 139°44'0 0.1
2014-Dec-15 15:31N 35°23' E 139°44'0 0.1
2014-Dec-15 14:31N 35°23' E 139°44'0 0.1
2014-Dec-15 13:31N 35°23' E 139°44'4 4.5
2014-Dec-15 12:33N 35°24' E 139°39'0 0.0
2014-Dec-15 11:33N 35°24' E 139°39'0 0.0
2014-Dec-15 10:33N 35°24' E 139°39'0 0.0
2014-Dec-15 09:33N 35°24' E 139°39'0 0.0
2014-Dec-15 08:33N 35°24' E 139°39'0 0.0
2014-Dec-15 07:33N 35°24' E 139°39'0 0.2
2014-Dec-15 06:33N 35°24' E 139°38'8 7.5
2014-Dec-15 05:33N 35°28' E 139°46'4 3.5
2014-Dec-15 04:33N 35°30' E 139°43'0 0.0
2014-Dec-15 03:33N 35°30' E 139°43'0 0.0
2014-Dec-15 02:31N 35°30' E 139°43'0 0.0
2014-Dec-15 01:31N 35°30' E 139°43'0 0.0
2014-Dec-15 00:31N 35°30' E 139°43'0 0.0
2014-Dec-14 23:31N 35°30' E 139°43'0 0.5
2014-Dec-14 22:33N 35°29' E 139°43'6 5.9
2014-Dec-14 21:33N 35°24' E 139°44'0 0.0
2014-Dec-14 20:31N 35°24' E 139°44'0 0.1
2014-Dec-14 19:31N 35°24' E 139°44'0 0.0
2014-Dec-14 18:31N 35°24' E 139°44'0 0.0
2014-Dec-14 17:31N 35°24' E 139°44'0 0.1
2014-Dec-14 16:31N 35°24' E 139°44'0 0.0
2014-Dec-14 15:31N 35°24' E 139°44'0 0.0
2014-Dec-14 14:31N 35°24' E 139°44'0 0.1
2014-Dec-14 13:31N 35°24' E 139°44'0 0.0
2014-Dec-14 12:31N 35°24' E 139°44'0 0.1
2014-Dec-14 11:34N 35°24' E 139°44'4 4.5
2014-Dec-14 10:34N 35°24' E 139°39'0 0.0
2014-Dec-14 09:31N 35°24' E 139°39'0 0.0
2014-Dec-14 08:31N 35°24' E 139°39'0 0.0
2014-Dec-14 07:31N 35°24' E 139°39'0 0.0
2014-Dec-14 06:31N 35°24' E 139°39'0 0.0
2014-Dec-14 05:31N 35°24' E 139°39'0 0.4
2014-Dec-14 04:33N 35°24' E 139°39'1 1.1
2014-Dec-14 03:33N 35°24' E 139°40'0 0.0
2014-Dec-14 02:33N 35°24' E 139°40'0 0.0
2014-Dec-14 01:33N 35°24' E 139°40'0 0.0
2014-Dec-14 00:33N 35°24' E 139°40'0 0.0
2014-Dec-13 23:33N 35°24' E 139°40'0 0.0
2014-Dec-13 22:33N 35°24' E 139°40'4 0.9
2014-Dec-13 18:15N 35°22' E 139°44'0 0.0
2014-Dec-13 17:33N 35°22' E 139°44'0 0.0
2014-Dec-13 16:33N 35°22' E 139°44'0 0.1
2014-Dec-13 15:27N 35°22' E 139°44'0 0.0
2014-Dec-13 14:33N 35°22' E 139°44'0 0.0
2014-Dec-13 13:33N 35°22' E 139°44'3 3.0
2014-Dec-13 12:34N 35°23' E 139°41'2 2.1
2014-Dec-13 11:31N 35°24' E 139°39'0 0.0
2014-Dec-13 10:31N 35°24' E 139°39'0 0.0
2014-Dec-13 09:31N 35°24' E 139°39'0 0.0
2014-Dec-13 08:28N 35°24' E 139°39'0 0.0
2014-Dec-13 07:28N 35°24' E 139°39'0 0.2
2014-Dec-13 06:33N 35°24' E 139°38'7 6.9
2014-Dec-13 05:33N 35°27' E 139°46'3 3.4
2014-Dec-13 04:33N 35°30' E 139°43'0 0.0
2014-Dec-13 03:33N 35°30' E 139°43'0 0.0
2014-Dec-13 02:33N 35°30' E 139°43'0 0.0
2014-Dec-13 01:33N 35°30' E 139°43'0 0.0
2014-Dec-13 00:33N 35°30' E 139°43'0 0.0
2014-Dec-12 23:33N 35°30' E 139°43'0 0.0
2014-Dec-12 22:33N 35°30' E 139°43'4 4.3
2014-Dec-12 21:33N 35°25' E 139°43'4 3.5
2014-Dec-12 20:31N 35°22' E 139°44'0 0.1
2014-Dec-12 19:31N 35°22' E 139°44'0 0.1
2014-Dec-12 18:31N 35°22' E 139°44'0 0.0
2014-Dec-12 17:31N 35°22' E 139°44'0 0.1
2014-Dec-12 16:31N 35°22' E 139°44'0 0.1
2014-Dec-12 15:31N 35°22' E 139°44'0 0.1
2014-Dec-12 14:33N 35°22' E 139°44'5 5.1
2014-Dec-12 13:33N 35°24' E 139°39'0 0.0
2014-Dec-12 12:31N 35°24' E 139°39'0 0.0
2014-Dec-12 11:31N 35°24' E 139°39'0 0.0
2014-Dec-12 10:31N 35°24' E 139°39'0 0.0
2014-Dec-12 09:31N 35°24' E 139°39'0 0.0
2014-Dec-12 08:31N 35°24' E 139°39'0 0.0
2014-Dec-12 07:31N 35°24' E 139°39'0 0.0
2014-Dec-12 06:34N 35°24' E 139°39'6 6.1
2014-Dec-12 05:34N 35°27' E 139°45'4 3.5
2014-Dec-12 04:34N 35°30' E 139°43'0 0.0
2014-Dec-12 03:34N 35°30' E 139°43'0 0.0
2014-Dec-12 02:33N 35°30' E 139°43'0 0.0
2014-Dec-12 01:33N 35°30' E 139°43'0 0.0
2014-Dec-12 00:33N 35°30' E 139°43'0 0.0
2014-Dec-11 23:33N 35°30' E 139°43'0 0.0
2014-Dec-11 22:33N 35°30' E 139°43'5 5.3
2014-Dec-11 21:33N 35°25' E 139°44'2 1.9
2014-Dec-11 20:32N 35°23' E 139°44'0 0.0
2014-Dec-11 19:32N 35°23' E 139°44'0 0.0
2014-Dec-11 18:32N 35°23' E 139°44'0 0.0
2014-Dec-11 17:32N 35°23' E 139°44'0 0.0
2014-Dec-11 16:32N 35°23' E 139°44'0 0.0
2014-Dec-11 15:32N 35°23' E 139°44'0 0.1
2014-Dec-11 14:33N 35°23' E 139°44'4 4.3
2014-Dec-11 13:31N 35°24' E 139°39'0 0.0
2014-Dec-11 12:31N 35°24' E 139°39'0 0.0
2014-Dec-11 11:31N 35°24' E 139°39'0 0.0
2014-Dec-11 10:31N 35°24' E 139°39'0 0.0
2014-Dec-11 09:31N 35°24' E 139°39'0 0.0
2014-Dec-11 08:31N 35°24' E 139°39'0 0.0
2014-Dec-11 07:22N 35°24' E 139°39'0 0.3
2014-Dec-11 06:33N 35°24' E 139°38'7 7.3
2014-Dec-11 05:34N 35°28' E 139°46'3 3.3
2014-Dec-11 04:33N 35°30' E 139°43'0 0.0
2014-Dec-11 03:33N 35°30' E 139°43'  
Track history (hours):
 
Tides and Currents Weather Stations Pressure Air Temp Water Temp Dewpoint Dewpoint Depression Visibility Wind Speed Wind Dir Waves Ship Positions

Jp Tsubaki

Last reported at 2014-Dec-21 02:33 UTC. Time now 2014-Dec-21 03:20 UTC.
Position N 35°30' E 139°43'.

Length 115 m; draft 6.5 m.

Type: Cargo ship. MMSI: 431000734.

Date/timePositionNaut miles runAvg speedWind from/ knotsBaromVisibWave heightAir tempDewpointWater temp
2014-Dec-21 02:33N 35°30' E 139°43'0 0.0
2014-Dec-21 01:30N 35°30' E 139°43'0 0.0
2014-Dec-21 00:33N 35°30' E 139°43'0 0.0
2014-Dec-20 23:33N 35°30' E 139°43'0 0.0
2014-Dec-20 22:33N 35°30' E 139°43'6 5.9
2014-Dec-20 21:34N 35°24' E 139°45'1 0.9
2014-Dec-20 20:31N 35°23' E 139°44'0 0.1
2014-Dec-20 19:28N 35°23' E 139°44'0 0.0
2014-Dec-20 18:31N 35°23' E 139°44'0 0.1
2014-Dec-20 17:28N 35°23' E 139°44'0 0.1
2014-Dec-20 16:31N 35°23' E 139°44'0 0.1
2014-Dec-20 15:31N 35°23' E 139°44'0 0.0
2014-Dec-20 14:31N 35°23' E 139°44'0 0.1
2014-Dec-20 13:33N 35°23' E 139°44'5 4.8
2014-Dec-20 12:33N 35°24' E 139°39'0 0.0
2014-Dec-20 11:33N 35°24' E 139°39'0 0.0
2014-Dec-20 10:33N 35°24' E 139°39'0 0.0
2014-Dec-20 09:33N 35°24' E 139°39'0 0.0
2014-Dec-20 08:33N 35°24' E 139°39'0 0.0
2014-Dec-20 07:24N 35°24' E 139°39'0 0.5
2014-Dec-20 06:33N 35°24' E 139°39'8 8.3
2014-Dec-20 05:33N 35°28' E 139°47'3 3.0
2014-Dec-20 04:33N 35°30' E 139°44'0 0.0
2014-Dec-20 03:27N 35°30' E 139°44'0 0.0
2014-Dec-20 02:33N 35°30' E 139°44'0 0.0
2014-Dec-20 01:33N 35°30' E 139°44'0 0.0
2014-Dec-20 00:33N 35°30' E 139°44'0 0.0
2014-Dec-19 23:33N 35°30' E 139°44'0 0.0
2014-Dec-19 22:33N 35°30' E 139°44'0 0.0
2014-Dec-19 21:33N 35°30' E 139°44'0 0.0
2014-Dec-19 20:33N 35°30' E 139°44'0 0.0
2014-Dec-19 19:33N 35°30' E 139°44'0 0.0
2014-Dec-19 18:33N 35°30' E 139°44'0 0.0
2014-Dec-19 17:33N 35°30' E 139°44'0 0.0
2014-Dec-19 16:33N 35°30' E 139°44'0 0.0
2014-Dec-19 15:33N 35°30' E 139°44'0 0.0
2014-Dec-19 14:33N 35°30' E 139°44'2 2.4
2014-Dec-19 13:33N 35°28' E 139°42'5 5.0
2014-Dec-19 12:33N 35°24' E 139°39'0 0.0
2014-Dec-19 11:33N 35°24' E 139°39'0 0.0
2014-Dec-19 10:33N 35°24' E 139°39'0 0.0
2014-Dec-19 09:33N 35°24' E 139°39'0 0.0
2014-Dec-19 08:30N 35°24' E 139°39'0 0.0
2014-Dec-19 07:33N 35°24' E 139°39'0 0.4
2014-Dec-19 06:33N 35°24' E 139°39'9 9.1
2014-Dec-19 05:33N 35°28' E 139°48'7 6.6
2014-Dec-19 04:32N 35°30' E 139°57'0 0.0
2014-Dec-19 01:24N 35°30' E 139°57'0 0.0
2014-Dec-19 00:24N 35°30' E 139°57'0 0.0
2014-Dec-18 23:21N 35°30' E 139°57'0 0.1
2014-Dec-18 22:33N 35°30' E 139°57'0 0.0
2014-Dec-18 21:21N 35°30' E 139°57'3 3.2
2014-Dec-18 20:33N 35°27' E 139°58'0 0.0
2014-Dec-18 19:33N 35°27' E 139°58'0 0.0
2014-Dec-18 18:14N 35°27' E 139°58'0 0.0
2014-Dec-18 17:32N 35°27' E 139°58'0 0.0
2014-Dec-18 16:20N 35°27' E 139°58'0 0.0
2014-Dec-18 15:26N 35°27' E 139°58'0 0.2
2014-Dec-18 14:33N 35°28' E 139°58'9 8.6
2014-Dec-18 13:33N 35°25' E 139°48'8 7.8
2014-Dec-18 12:33N 35°24' E 139°39'0 0.0
2014-Dec-18 11:33N 35°24' E 139°39'0 0.0
2014-Dec-18 10:33N 35°24' E 139°39'0 0.0
2014-Dec-18 09:18N 35°24' E 139°39'0 0.0
2014-Dec-18 08:27N 35°24' E 139°39'0 0.0
2014-Dec-18 07:30N 35°24' E 139°39'1 1.4
2014-Dec-18 06:34N 35°23' E 139°40'9 8.3
2014-Dec-18 05:30N 35°30' E 139°46'2 2.6
2014-Dec-18 04:33N 35°30' E 139°43'0 0.0
2014-Dec-18 03:32N 35°30' E 139°43'0 0.0
2014-Dec-18 02:32N 35°30' E 139°43'0 0.0
2014-Dec-18 01:32N 35°30' E 139°43'0 0.0
2014-Dec-18 00:32N 35°30' E 139°43'0 0.0
2014-Dec-17 23:32N 35°30' E 139°43'0 0.0
2014-Dec-17 22:33N 35°30' E 139°43'5 5.3
2014-Dec-17 21:33N 35°25' E 139°45'1 0.7
2014-Dec-17 20:29N 35°24' E 139°45'0 0.1
2014-Dec-17 19:31N 35°24' E 139°45'0 0.1
2014-Dec-17 18:32N 35°24' E 139°45'0 0.1
2014-Dec-17 17:31N 35°24' E 139°45'0 0.1
2014-Dec-17 16:34N 35°24' E 139°45'0 0.0
2014-Dec-17 15:33N 35°24' E 139°45'0 0.1
2014-Dec-17 14:32N 35°24' E 139°45'0 0.1
2014-Dec-17 13:31N 35°24' E 139°45'5 5.3
2014-Dec-17 12:33N 35°24' E 139°39'0 0.0
2014-Dec-17 11:33N 35°24' E 139°39'0 0.0
2014-Dec-17 10:24N 35°24' E 139°39'0 0.0
2014-Dec-17 09:03N 35°24' E 139°39'0 0.0
2014-Dec-17 08:21N 35°24' E 139°39'0 0.0
2014-Dec-17 07:33N 35°24' E 139°39'0 0.0
2014-Dec-17 06:33N 35°24' E 139°39'0 0.0
2014-Dec-17 05:33N 35°24' E 139°39'0 0.0
2014-Dec-17 04:18N 35°24' E 139°39'0 0.0
2014-Dec-17 03:15N 35°24' E 139°39'0 0.0
2014-Dec-17 02:09N 35°24' E 139°39'0 0.0
2014-Dec-17 01:27N 35°24' E 139°39'0 0.0
2014-Dec-17 00:27N 35°24' E 139°39'0 0.0
2014-Dec-16 23:24N 35°24' E 139°39'0 0.0
2014-Dec-16 22:33N 35°24' E 139°39'0 0.0
2014-Dec-16 21:33N 35°24' E 139°39'0 0.0
2014-Dec-16 20:30N 35°24' E 139°39'0 0.0
2014-Dec-16 19:27N 35°24' E 139°39'0 0.0
2014-Dec-16 18:33N 35°24' E 139°39'0 0.0
2014-Dec-16 17:33N 35°24' E 139°39'0 0.0
2014-Dec-16 16:33N 35°24' E 139°39'0 0.0
2014-Dec-16 15:33N 35°24' E 139°39'0 0.0
2014-Dec-16 14:30N 35°24' E 139°39'0 0.0
2014-Dec-16 13:33N 35°24' E 139°39'2 2.2
2014-Dec-16 12:34N 35°23' E 139°41'8 7.9
2014-Dec-16 11:33N 35°30' E 139°46'2 2.1
2014-Dec-16 10:32N 35°30' E 139°43'0 0.0
2014-Dec-16 09:29N 35°30' E 139°43'0 0.0
2014-Dec-16 08:32N 35°30' E 139°43'0 0.0
2014-Dec-16 07:32N 35°30' E 139°43'0 0.0
2014-Dec-16 06:32N 35°30' E 139°43'0 0.0
2014-Dec-16 05:29N 35°30' E 139°43'3 2.9
2014-Dec-16 04:33N 35°27' E 139°43'4 3.8
2014-Dec-16 03:33N 35°23' E 139°44'0 0.0
2014-Dec-16 02:32N 35°23' E 139°44'0 0.0
2014-Dec-16 01:08N 35°23' E 139°44'0 0.0
2014-Dec-15 23:31N 35°23' E 139°44'0 0.0
2014-Dec-15 22:31N 35°23' E 139°44'0 0.0
2014-Dec-15 21:31N 35°23' E 139°44'0 0.0
2014-Dec-15 20:31N 35°23' E 139°44'0 0.0
2014-Dec-15 19:31N 35°23' E 139°44'0 0.0
2014-Dec-15 18:31N 35°23' E 139°44'0 0.0
2014-Dec-15 17:31N 35°23' E 139°44'0 0.0
2014-Dec-15 16:31N 35°23' E 139°44'0 0.1
2014-Dec-15 15:31N 35°23' E 139°44'0 0.1
2014-Dec-15 14:31N 35°23' E 139°44'0 0.1
2014-Dec-15 13:31N 35°23' E 139°44'4 4.5
2014-Dec-15 12:33N 35°24' E 139°39'0 0.0
2014-Dec-15 11:33N 35°24' E 139°39'0 0.0
2014-Dec-15 10:33N 35°24' E 139°39'0 0.0
2014-Dec-15 09:33N 35°24' E 139°39'0 0.0
2014-Dec-15 08:33N 35°24' E 139°39'0 0.0
2014-Dec-15 07:33N 35°24' E 139°39'0 0.2
2014-Dec-15 06:33N 35°24' E 139°38'8 7.5
2014-Dec-15 05:33N 35°28' E 139°46'4 3.5
2014-Dec-15 04:33N 35°30' E 139°43'0 0.0
2014-Dec-15 03:33N 35°30' E 139°43'0 0.0
2014-Dec-15 02:31N 35°30' E 139°43'0 0.0
2014-Dec-15 01:31N 35°30' E 139°43'0 0.0
2014-Dec-15 00:31N 35°30' E 139°43'0 0.0
2014-Dec-14 23:31N 35°30' E 139°43'0 0.5
2014-Dec-14 22:33N 35°29' E 139°43'6 5.9
2014-Dec-14 21:33N 35°24' E 139°44'0 0.0
2014-Dec-14 20:31N 35°24' E 139°44'0 0.1
2014-Dec-14 19:31N 35°24' E 139°44'0 0.0
2014-Dec-14 18:31N 35°24' E 139°44'0 0.0
2014-Dec-14 17:31N 35°24' E 139°44'0 0.1
2014-Dec-14 16:31N 35°24' E 139°44'0 0.0
2014-Dec-14 15:31N 35°24' E 139°44'0 0.0
2014-Dec-14 14:31N 35°24' E 139°44'0 0.1
2014-Dec-14 13:31N 35°24' E 139°44'0 0.0
2014-Dec-14 12:31N 35°24' E 139°44'0 0.1
2014-Dec-14 11:34N 35°24' E 139°44'4 4.5
2014-Dec-14 10:34N 35°24' E 139°39'0 0.0
2014-Dec-14 09:31N 35°24' E 139°39'0 0.0
2014-Dec-14 08:31N 35°24' E 139°39'0 0.0
2014-Dec-14 07:31N 35°24' E 139°39'0 0.0
2014-Dec-14 06:31N 35°24' E 139°39'0 0.0
2014-Dec-14 05:31N 35°24' E 139°39'0 0.4
2014-Dec-14 04:33N 35°24' E 139°39'1 1.1
2014-Dec-14 03:33N 35°24' E 139°40'0 0.0
2014-Dec-14 02:33N 35°24' E 139°40'0 0.0
2014-Dec-14 01:33N 35°24' E 139°40'0 0.0
2014-Dec-14 00:33N 35°24' E 139°40'0 0.0
2014-Dec-13 23:33N 35°24' E 139°40'0 0.0
2014-Dec-13 22:33N 35°24' E 139°40'4 0.9
2014-Dec-13 18:15N 35°22' E 139°44'0 0.0
2014-Dec-13 17:33N 35°22' E 139°44'0 0.0
2014-Dec-13 16:33N 35°22' E 139°44'0 0.1
2014-Dec-13 15:27N 35°22' E 139°44'0 0.0
2014-Dec-13 14:33N 35°22' E 139°44'0 0.0
2014-Dec-13 13:33N 35°22' E 139°44'3 3.0
2014-Dec-13 12:34N 35°23' E 139°41'2 2.1
2014-Dec-13 11:31N 35°24' E 139°39'0 0.0
2014-Dec-13 10:31N 35°24' E 139°39'0 0.0
2014-Dec-13 09:31N 35°24' E 139°39'0 0.0
2014-Dec-13 08:28N 35°24' E 139°39'0 0.0
2014-Dec-13 07:28N 35°24' E 139°39'0 0.2
2014-Dec-13 06:33N 35°24' E 139°38'7 6.9
2014-Dec-13 05:33N 35°27' E 139°46'3 3.4
2014-Dec-13 04:33N 35°30' E 139°43'0 0.0
2014-Dec-13 03:33N 35°30' E 139°43'0 0.0
2014-Dec-13 02:33N 35°30' E 139°43'0 0.0
2014-Dec-13 01:33N 35°30' E 139°43'0 0.0
2014-Dec-13 00:33N 35°30' E 139°43'0 0.0
2014-Dec-12 23:33N 35°30' E 139°43'0 0.0
2014-Dec-12 22:33N 35°30' E 139°43'4 4.3
2014-Dec-12 21:33N 35°25' E 139°43'4 3.5
2014-Dec-12 20:31N 35°22' E 139°44'0 0.1
2014-Dec-12 19:31N 35°22' E 139°44'0 0.1
2014-Dec-12 18:31N 35°22' E 139°44'0 0.0
2014-Dec-12 17:31N 35°22' E 139°44'0 0.1
2014-Dec-12 16:31N 35°22' E 139°44'0 0.1
2014-Dec-12 15:31N 35°22' E 139°44'0 0.1
2014-Dec-12 14:33N 35°22' E 139°44'5 5.1
2014-Dec-12 13:33N 35°24' E 139°39'0 0.0
2014-Dec-12 12:31N 35°24' E 139°39'0 0.0
2014-Dec-12 11:31N 35°24' E 139°39'0 0.0
2014-Dec-12 10:31N 35°24' E 139°39'0 0.0
2014-Dec-12 09:31N 35°24' E 139°39'0 0.0
2014-Dec-12 08:31N 35°24' E 139°39'0 0.0
2014-Dec-12 07:31N 35°24' E 139°39'0 0.0
2014-Dec-12 06:34N 35°24' E 139°39'6 6.1
2014-Dec-12 05:34N 35°27' E 139°45'4 3.5
2014-Dec-12 04:34N 35°30' E 139°43'0 0.0
2014-Dec-12 03:34N 35°30' E 139°43'0 0.0
2014-Dec-12 02:33N 35°30' E 139°43'0 0.0
2014-Dec-12 01:33N 35°30' E 139°43'0 0.0
2014-Dec-12 00:33N 35°30' E 139°43'0 0.0
2014-Dec-11 23:33N 35°30' E 139°43'0 0.0
2014-Dec-11 22:33N 35°30' E 139°43'5 5.3
2014-Dec-11 21:33N 35°25' E 139°44'2 1.9
2014-Dec-11 20:32N 35°23' E 139°44'0 0.0
2014-Dec-11 19:32N 35°23' E 139°44'0 0.0
2014-Dec-11 18:32N 35°23' E 139°44'0 0.0
2014-Dec-11 17:32N 35°23' E 139°44'0 0.0
2014-Dec-11 16:32N 35°23' E 139°44'0 0.0
2014-Dec-11 15:32N 35°23' E 139°44'0 0.1
2014-Dec-11 14:33N 35°23' E 139°44'4 4.3
2014-Dec-11 13:31N 35°24' E 139°39'0 0.0
2014-Dec-11 12:31N 35°24' E 139°39'0 0.0
2014-Dec-11 11:31N 35°24' E 139°39'0 0.0
2014-Dec-11 10:31N 35°24' E 139°39'0 0.0
2014-Dec-11 09:31N 35°24' E 139°39'0 0.0
2014-Dec-11 08:31N 35°24' E 139°39'0 0.0
2014-Dec-11 07:22N 35°24' E 139°39'0 0.3
2014-Dec-11 06:33N 35°24' E 139°38'7 7.3
2014-Dec-11 05:34N 35°28' E 139°46'3 3.3
2014-Dec-11 04:33N 35°30' E 139°43'0 0.0
2014-Dec-11 03:33N 35°30' E 139°43'  

Dump ship's entire track history